Time;durP1;ratioP1;P1;durP2;ratioP2;P2;SDS_P1;SDS_P2;PMS_P1;PMS_P2;Temp;Humidity;BMP_temperature;BMP_pressure;BME280_temperature;BME280_humidity;BME280_pressure;Samples;Min_cycle;Max_cycle;Signal;HPM_P1;HPM_P2
2021/05/11 00:02:08;;;;;;;2.20;0.82;;;;;;;11.85;48.73;101105.93;1748073;82;21138;-63
2021/05/11 00:04:36;;;;;;;2.72;1.00;;;;;;;11.80;48.82;101103.30;1746132;81;21578;-63
2021/05/11 00:07:04;;;;;;;1.70;1.02;;;;;;;11.76;49.00;101101.56;1739272;81;21119;-48
2021/05/11 00:09:31;;;;;;;1.40;0.80;;;;;;;11.72;49.01;101102.03;1748221;81;21598;-63
2021/05/11 00:11:59;;;;;;;2.05;0.93;;;;;;;11.72;49.07;101107.31;1748254;82;21559;-63
2021/05/11 00:14:27;;;;;;;1.90;0.80;;;;;;;11.70;49.16;101105.13;1743107;81;21123;-48
2021/05/11 00:16:54;;;;;;;3.35;1.10;;;;;;;11.67;49.25;101105.14;1747671;81;21638;-48
2021/05/11 00:19:24;;;;;;;2.17;0.90;;;;;;;11.65;49.26;101104.72;1748343;81;21152;-63
2021/05/11 00:21:52;;;;;;;1.22;0.80;;;;;;;11.61;49.28;101101.20;1748261;81;21289;-47
2021/05/11 00:24:20;;;;;;;1.50;1.10;;;;;;;11.62;49.27;101104.73;1733726;82;21602;-48
2021/05/11 00:26:48;;;;;;;3.55;1.07;;;;;;;11.60;49.42;101104.73;1748077;82;21181;-63
2021/05/11 00:29:17;;;;;;;1.57;0.80;;;;;;;11.56;49.42;101097.29;1748135;81;21155;-63
2021/05/11 00:31:45;;;;;;;2.35;1.10;;;;;;;11.54;49.40;101094.20;1746727;81;22364;-63
2021/05/11 00:34:12;;;;;;;1.72;0.90;;;;;;;11.51;49.45;101096.43;1737134;82;21578;-47
2021/05/11 00:36:40;;;;;;;1.85;1.00;;;;;;;11.47;49.52;101101.28;1748465;81;21200;-63
2021/05/11 00:39:08;;;;;;;3.83;1.12;;;;;;;11.47;49.57;101097.33;1748367;82;21199;-49
2021/05/11 00:41:36;;;;;;;2.15;0.75;;;;;;;11.45;49.43;101093.39;1740953;81;21123;-48
2021/05/11 00:44:19;;;;;;;1.50;1.10;;;;;;;11.39;49.59;101086.83;1731951;82;21430;-48
2021/05/11 00:46:55;;;;;;;2.08;0.82;;;;;;;11.34;49.69;101079.38;1748056;82;21189;-63
2021/05/11 00:49:18;;;;;;;;;;;;;;;11.33;49.60;101076.73;1750535;81;21269;-63
2021/05/11 00:51:46;;;;;;;1.12;0.85;;;;;;;11.21;49.73;101082.94;1740719;82;20215;-48
2021/05/11 00:54:13;;;;;;;1.92;0.90;;;;;;;11.15;49.79;101082.06;1718599;83;21654;-48
2021/05/11 00:56:41;;;;;;;1.92;1.22;;;;;;;11.11;49.89;101073.73;1718737;82;21358;-62
2021/05/11 00:59:14;;;;;;;2.87;1.10;;;;;;;11.08;50.08;101075.06;1721332;82;21135;-47
2021/05/11 01:01:39;;;;;;;2.25;0.88;;;;;;;11.05;50.24;101068.94;1721499;81;21312;-63
2021/05/11 01:04:07;;;;;;;2.00;1.00;;;;;;;11.04;50.35;101066.73;1742746;82;21590;-63
2021/05/11 01:06:35;;;;;;;2.55;1.00;;;;;;;11.02;50.46;101060.63;1748242;82;21188;-63
2021/05/11 01:09:05;;;;;;;2.22;1.02;;;;;;;11.00;50.47;101067.20;1740063;81;21285;-47
2021/05/11 01:11:33;;;;;;;2.25;1.20;;;;;;;10.98;50.65;101061.05;1740854;82;21172;-62
2021/05/11 01:14:01;;;;;;;1.42;1.00;;;;;;;10.95;50.77;101058.42;1748284;82;21591;-62
2021/05/11 01:16:30;;;;;;;21.20;3.58;;;;;;;10.94;50.87;101053.17;1748252;82;21611;-48
2021/05/11 01:19:07;;;;;;;4.58;1.00;;;;;;;10.97;50.84;101055.34;1736617;81;21725;-63
2021/05/11 01:24:10;;;;;;;6.90;1.50;;;;;;;10.91;51.02;101054.05;1754905;81;21178;-48
2021/05/11 01:26:51;;;;;;;2.85;1.65;;;;;;;10.92;51.11;101050.98;1759204;81;21576;-63
2021/05/11 01:29:26;;;;;;;4.37;1.10;;;;;;;11.20;50.66;101036.39;1744343;81;21150;-48
2021/05/11 02:23:44;;;;;;;2.30;1.07;;;;;;;10.98;51.96;101012.32;1744230;81;21168;-47
2021/05/11 02:26:12;;;;;;;3.08;1.55;;;;;;;10.97;52.06;101011.03;1725757;82;21293;-62
2021/05/11 02:28:39;;;;;;;4.12;1.40;;;;;;;10.97;52.10;101007.94;1753993;81;21586;-48
2021/05/11 02:31:08;;;;;;;3.12;1.30;;;;;;;11.00;52.17;101008.38;1752699;81;21577;-63
2021/05/11 02:33:35;;;;;;;3.52;1.45;;;;;;;11.03;52.26;101008.38;1754769;81;21178;-63
2021/05/11 02:36:05;;;;;;;3.67;1.10;;;;;;;11.09;52.22;101013.59;1760734;81;21586;-48
2021/05/11 02:38:32;;;;;;;1.77;1.20;;;;;;;11.09;52.39;101005.69;1761256;81;21155;-48
2021/05/11 02:41:00;;;;;;;2.25;1.17;;;;;;;11.11;52.36;101007.88;1745537;80;21707;-48
2021/05/11 02:43:32;;;;;;;3.05;1.47;;;;;;;11.13;52.32;101005.25;1745320;81;21150;-48
2021/05/11 02:45:57;;;;;;;2.83;1.40;;;;;;;11.16;52.28;101003.92;1761601;81;21122;-48
2021/05/11 02:48:25;;;;;;;4.20;1.55;;;;;;;11.19;52.43;101006.54;1759518;81;21174;-63
2021/05/11 02:50:53;;;;;;;2.15;1.00;;;;;;;11.20;52.66;101002.13;1742330;81;21140;-48
2021/05/11 02:53:21;;;;;;;2.92;1.57;;;;;;;11.21;52.76;100995.98;1731699;83;21546;-48
2021/05/11 02:55:48;;;;;;;2.30;1.40;;;;;;;11.19;52.69;100997.32;1731342;81;21606;-48
2021/05/11 02:58:16;;;;;;;2.95;1.17;;;;;;;11.16;52.71;101000.83;1755206;81;21612;-63
2021/05/11 03:00:45;;;;;;;2.92;1.30;;;;;;;11.14;52.99;101005.23;1761034;80;21159;-48
2021/05/11 03:03:13;;;;;;;2.30;1.50;;;;;;;11.11;53.19;101000.42;1761537;81;21147;-48
2021/05/11 03:05:41;;;;;;;4.85;1.80;;;;;;;11.10;53.22;100999.53;1761582;80;21119;-64
2021/05/11 03:08:13;;;;;;;7.05;1.50;;;;;;;11.04;53.64;101003.97;1746190;81;21574;-48
2021/05/11 03:10:42;;;;;;;3.20;1.30;;;;;;;11.06;53.77;101003.52;1761336;80;21127;-49
2021/05/11 03:13:10;;;;;;;4.58;1.27;;;;;;;11.09;53.72;100999.55;1761629;81;21582;-48
2021/05/11 03:15:38;;;;;;;5.30;1.82;;;;;;;11.11;53.72;101001.29;1761360;80;21135;-48
2021/05/11 03:18:07;;;;;;;3.08;1.67;;;;;;;11.13;53.69;100999.52;1760585;81;21134;-49
2021/05/11 03:20:36;;;;;;;4.75;1.60;;;;;;;11.19;53.57;101005.65;1761302;81;21206;-64
2021/05/11 03:23:05;;;;;;;3.55;1.32;;;;;;;11.25;53.53;101009.58;1761686;81;21613;-64
2021/05/11 03:25:34;;;;;;;8.28;1.90;;;;;;;11.29;53.63;101009.54;1744385;81;21138;-48
2021/05/11 03:28:02;;;;;;;8.60;1.70;;;;;;;11.35;53.61;101013.03;1741385;82;21269;-63
2021/05/11 03:30:30;;;;;;;10.88;3.25;;;;;;;11.41;53.58;101010.37;1748382;81;21155;-64
2021/05/11 03:32:58;;;;;;;7.30;2.00;;;;;;;11.49;53.60;101008.99;1748372;82;21598;-49
2021/05/11 03:35:25;;;;;;;4.60;1.95;;;;;;;11.54;53.89;101013.37;1746146;81;21575;-64
2021/05/11 03:37:53;;;;;;;4.00;1.55;;;;;;;11.62;53.97;101014.63;1747684;82;21132;-64
2021/05/11 03:40:21;;;;;;;12.40;2.45;;;;;;;11.70;54.02;101013.28;1748250;81;21555;-64
2021/05/11 03:42:56;;;;;;;5.42;1.80;;;;;;;11.80;53.93;101012.31;1748130;82;21151;-65
2021/05/11 03:45:28;;;;;;;5.35;1.87;;;;;;;11.88;53.77;101012.27;1728011;82;21588;-65
2021/05/11 03:47:56;;;;;;;2.87;1.40;;;;;;;11.96;53.91;101009.11;1834801;77;22156;-64
2021/05/11 03:50:30;;;;;;;2.40;1.45;;;;;;;11.96;54.23;101009.11;1821017;77;22664;-64
2021/05/11 03:53:16;;;;;;;4.90;1.85;;;;;;;11.89;54.18;101005.66;1759140;81;21114;-49
2021/05/11 03:55:51;;;;;;;4.10;1.72;;;;;;;11.91;54.41;101005.66;1811746;77;22181;-47
2021/05/11 03:58:25;;;;;;;5.45;2.08;;;;;;;11.99;54.26;101000.31;1831326;77;22171;-64
2021/05/11 04:01:10;;;;;;;3.72;1.65;;;;;;;12.05;54.19;101008.22;1775553;80;21142;-48
2021/05/11 04:03:43;;;;;;;3.83;1.82;;;;;;;12.19;54.00;101004.98;1822784;77;22170;-64
2021/05/11 04:06:16;;;;;;;2.67;1.50;;;;;;;12.23;54.45;101000.58;1815494;77;22170;-47
2021/05/11 04:08:57;;;;;;;3.87;1.57;;;;;;;12.25;54.50;101001.44;1818631;77;22186;-48
2021/05/11 04:17:22;;;;;;;4.40;1.60;;;;;;;12.44;55.18;100991.57;1824193;77;22153;-48
2021/05/11 04:19:55;;;;;;;4.67;2.00;;;;;;;12.44;55.09;100990.25;1814620;77;22109;-48
2021/05/11 04:22:40;;;;;;;8.60;1.98;;;;;;;12.45;55.18;100998.60;1748280;81;21526;-50
2021/05/11 04:25:15;;;;;;;4.20;2.08;;;;;;;12.60;55.23;100990.06;1826736;77;22182;-65
2021/05/11 04:27:48;;;;;;;3.65;2.10;;;;;;;12.69;55.51;100983.83;1817591;77;22158;-65
2021/05/11 04:30:22;;;;;;;2.62;1.87;;;;;;;12.84;55.20;100982.31;1802471;77;22169;-49
2021/05/11 04:32:55;;;;;;;3.55;2.00;;;;;;;12.88;55.49;100988.45;1795838;77;22157;-66
2021/05/11 04:35:40;;;;;;;3.35;2.22;;;;;;;12.93;55.64;100986.16;1769512;80;21168;-50
2021/05/11 04:38:14;;;;;;;4.05;2.17;;;;;;;13.13;55.42;100978.88;1827250;77;22678;-49
2021/05/11 04:40:47;;;;;;;3.77;1.87;;;;;;;13.28;55.41;100979.11;1827030;77;22177;-65
2021/05/11 04:43:24;;;;;;;2.75;2.10;;;;;;;13.49;55.56;100982.81;1834778;77;22176;-49
2021/05/11 04:48:52;;;;;;;3.90;1.85;;;;;;;14.16;54.45;100967.19;1823851;77;22157;-48
2021/05/11 04:51:26;;;;;;;2.75;1.90;;;;;;;14.47;54.07;100974.56;1810062;77;22206;-65
2021/05/11 04:53:59;;;;;;;4.20;1.80;;;;;;;14.80;52.85;100971.31;1853076;77;22170;-65
2021/05/11 04:56:32;;;;;;;4.53;1.82;;;;;;;15.14;51.85;100966.62;1827221;77;22555;-49
2021/05/11 04:59:05;;;;;;;3.75;1.80;;;;;;;15.46;51.57;100962.35;1829810;77;22166;-65
2021/05/11 05:01:42;;;;;;;3.10;1.67;;;;;;;15.76;50.94;100967.86;1807943;77;22186;-65
2021/05/11 05:04:16;;;;;;;3.15;1.70;;;;;;;16.13;49.49;100959.42;1834016;77;22179;-66
2021/05/11 05:07:02;;;;;;;3.33;1.77;;;;;;;16.43;49.11;100971.02;1762399;80;21608;-66
2021/05/11 05:09:35;;;;;;;7.10;2.50;;;;;;;16.82;48.07;100961.09;1829369;77;22140;-66
2021/05/11 05:12:09;;;;;;;7.08;2.60;;;;;;;17.07;45.71;100959.94;1853037;77;22190;-49
2021/05/11 05:14:42;;;;;;;4.53;2.37;;;;;;;17.33;45.69;100967.59;1830207;77;22621;-65
2021/05/11 05:17:15;;;;;;;4.78;2.40;;;;;;;17.51;45.18;100967.47;1846324;77;22673;-65
2021/05/11 05:19:48;;;;;;;2.65;1.42;;;;;;;17.67;44.68;100967.84;1816144;77;22179;-65
2021/05/11 05:22:33;;;;;;;4.28;1.45;;;;;;;17.80;44.40;100971.86;1761806;81;21158;-49
2021/05/11 05:27:57;;;;;;;2.52;1.30;;;;;;;18.22;42.88;100962.95;1842355;77;22147;-48
2021/05/11 05:30:40;;;;;;;3.08;1.12;;;;;;;18.32;42.09;100964.38;1740887;81;21174;-68
2021/05/11 05:33:14;;;;;;;4.35;1.20;;;;;;;18.49;40.57;100965.09;1815771;77;22134;-66
2021/05/11 05:35:47;;;;;;;3.42;1.40;;;;;;;18.65;41.04;100960.07;1819425;77;22198;-66
2021/05/11 05:38:33;;;;;;;2.10;1.20;;;;;;;18.78;40.41;100963.59;1736636;81;21551;-50
2021/05/11 05:41:19;;;;;;;1.92;1.20;;;;;;;18.92;39.05;100957.77;1815126;77;22190;-66
2021/05/11 05:43:48;;;;;;;3.15;1.30;;;;;;;18.96;37.71;100948.75;1791659;77;22176;-49
2021/05/11 05:46:21;;;;;;;3.02;1.20;;;;;;;19.07;37.78;100945.66;1827334;77;23022;-49
2021/05/11 05:48:54;;;;;;;2.02;1.30;;;;;;;19.12;36.66;100941.87;1834770;77;22179;-49
2021/05/11 05:51:28;;;;;;;3.98;1.60;;;;;;;19.23;36.82;100937.92;1808769;77;22182;-66
2021/05/11 05:54:02;;;;;;;9.98;1.77;;;;;;;19.35;36.59;100945.44;1825434;77;22195;-65
2021/05/11 05:56:35;;;;;;;2.65;1.22;;;;;;;19.50;35.64;100936.39;1809047;77;22139;-49
2021/05/11 05:59:08;;;;;;;2.55;1.20;;;;;;;19.60;34.72;100934.64;1818068;77;22186;-50
2021/05/11 06:01:57;;;;;;;4.22;1.50;;;;;;;19.76;34.46;100940.66;1759098;79;21223;-52
2021/05/11 06:04:30;;;;;;;2.47;1.20;;;;;;;20.04;34.23;100929.70;1817080;77;22543;-66
2021/05/11 06:07:03;;;;;;;3.30;1.35;;;;;;;20.24;34.37;100932.44;1820782;77;22680;-66
2021/05/11 06:09:36;;;;;;;2.15;1.10;;;;;;;20.53;34.17;100932.95;1834062;77;22163;-49
2021/05/11 06:17:03;;;;;;;3.27;1.30;;;;;;;21.12;32.77;100931.59;1818846;77;22147;-66
2021/05/11 06:17:47;;;;;;;2.77;1.50;;;;;;;21.35;32.89;100935.37;1761793;81;21155;-67
2021/05/11 06:20:21;;;;;;;2.40;1.42;;;;;;;21.65;30.53;100916.08;1810992;77;22178;-66
2021/05/11 06:22:54;;;;;;;3.05;1.20;;;;;;;21.79;31.02;100910.02;1829341;77;22186;-49
2021/05/11 06:25:44;;;;;;;6.12;1.50;;;;;;;21.78;29.72;100916.31;1768146;80;21772;-69
2021/05/11 06:28:15;;;;;;;3.35;1.42;;;;;;;21.83;30.44;100908.91;1853124;77;22622;-66
2021/05/11 06:30:48;;;;;;;3.58;1.40;;;;;;;21.88;29.63;100909.16;1817000;77;22186;-66
2021/05/11 06:33:22;;;;;;;4.10;1.37;;;;;;;22.01;29.88;100903.56;1821135;77;22163;-50
2021/05/11 06:36:09;;;;;;;3.15;1.40;;;;;;;21.96;29.79;100904.27;1698171;84;21161;-50
2021/05/11 06:38:43;;;;;;;4.62;1.60;;;;;;;22.10;29.32;100899.52;1818410;77;22158;-49
2021/05/11 06:41:17;;;;;;;3.25;1.20;;;;;;;22.05;28.93;100886.38;1815989;77;22158;-67
2021/05/11 06:44:16;;;;;;;3.50;1.22;;;;;;;21.84;28.00;100885.20;1776813;80;21122;-63
2021/05/11 06:47:10;;;;;;;3.05;1.30;;;;;;;21.66;28.79;100888.80;1805102;77;22198;-66
2021/05/11 06:49:39;;;;;;;2.35;1.40;;;;;;;21.52;28.95;100889.47;1827685;77;22186;-65
2021/05/11 06:55:16;;;;;;;2.98;1.32;;;;;;;21.43;30.19;100895.28;1786394;80;21300;-49
2021/05/11 06:57:48;;;;;;;2.75;1.37;;;;;;;21.54;29.71;100883.57;1853091;77;22179;-66
2021/05/11 07:00:21;;;;;;;3.10;1.35;;;;;;;21.57;27.13;100894.13;1807979;77;22199;-65
2021/05/11 07:02:55;;;;;;;1.90;1.40;;;;;;;21.61;28.01;100895.72;1805042;77;22154;-66
2021/05/11 07:05:43;;;;;;;2.20;1.20;;;;;;;21.63;28.17;100901.05;1773016;80;21550;-66
2021/05/11 07:08:21;;;;;;;3.00;0.90;;;;;;;21.71;27.15;100897.48;1831058;77;22163;-66
2021/05/11 07:10:59;;;;;;;2.55;1.30;;;;;;;21.77;26.64;100890.47;1800252;77;22639;-65
2021/05/11 07:13:40;;;;;;;3.90;1.30;;;;;;;21.79;26.23;100889.92;1731854;83;21139;-49
2021/05/11 07:16:13;;;;;;;4.15;1.20;;;;;;;21.88;26.17;100885.89;1831594;77;22185;-66
2021/05/11 07:18:46;;;;;;;2.05;1.12;;;;;;;21.86;25.70;100877.06;1853066;77;22139;-49
2021/05/11 07:21:19;;;;;;;3.83;1.30;;;;;;;21.88;25.92;100878.34;1811989;77;22186;-66
2021/05/11 07:23:53;;;;;;;3.17;1.22;;;;;;;21.91;25.04;100875.02;1825611;77;22190;-65
2021/05/11 07:26:27;;;;;;;3.72;1.32;;;;;;;21.94;24.49;100882.05;1826131;77;22185;-49
2021/05/11 07:31:49;;;;;;;2.50;1.00;;;;;;;22.09;25.39;100862.45;1782232;77;22166;-54
2021/05/11 07:34:22;;;;;;;3.22;1.25;;;;;;;22.10;25.04;100864.68;1853145;77;22155;-49
2021/05/11 07:36:55;;;;;;;2.50;0.80;;;;;;;22.04;24.01;100856.96;1804883;77;22190;-49
2021/05/11 07:39:28;;;;;;;3.80;1.10;;;;;;;22.07;24.34;100852.32;1824721;77;22154;-49
2021/05/11 07:42:01;;;;;;;3.85;1.20;;;;;;;22.18;25.20;100850.40;1792135;77;22181;-65
2021/05/11 07:44:37;;;;;;;1.95;1.17;;;;;;;22.22;25.40;100850.63;1853249;77;22182;-65
2021/05/11 08:09:55;;;;;;;5.65;1.50;;;;;;;23.67;23.95;100839.86;1836068;77;22185;-50
2021/05/11 08:29:45;;;;;;;2.12;1.25;;;;;;;26.39;20.18;100789.34;1833459;77;22136;-50
2021/05/11 08:32:26;;;;;;;2.75;1.52;;;;;;;26.38;19.30;100788.97;1833865;77;22173;-51
2021/05/11 08:34:59;;;;;;;3.77;2.20;;;;;;;26.18;18.92;100778.27;1816366;77;22563;-68
2021/05/11 08:37:33;;;;;;;2.77;1.15;;;;;;;26.33;20.74;100781.19;1827978;77;22159;-50
2021/05/11 08:40:08;;;;;;;4.50;1.20;;;;;;;26.61;19.93;100768.38;1821300;77;22174;-50
2021/05/11 08:42:41;;;;;;;1.47;0.90;;;;;;;26.66;20.19;100762.16;1817217;77;22182;-50
2021/05/11 08:45:30;;;;;;;7.20;1.30;;;;;;;26.53;19.03;100770.78;1771469;80;21119;-68
2021/05/11 08:48:04;;;;;;;3.72;1.00;;;;;;;26.50;19.22;100758.86;1837376;77;38293;-67
2021/05/11 08:50:40;;;;;;;2.75;0.98;;;;;;;26.51;18.67;100749.79;1816949;77;22205;-67
2021/05/11 09:23:31;;;;;;;3.42;1.20;;;;;;;27.82;20.36;100716.48;1807162;77;22158;-67
2021/05/11 09:27:25;;;;;;;4.17;1.10;;;;;;;27.90;21.54;100707.23;1834702;77;22136;-67
2021/05/11 10:14:53;;;;;;;8.35;1.47;;;;;;;30.24;20.58;100651.31;1820710;77;22127;-52
2021/05/11 10:48:36;;;;;;;6.28;1.27;;;;;;;31.46;19.98;100620.01;1826693;77;22202;-67
2021/05/11 10:51:22;;;;;;;4.35;1.07;;;;;;;31.58;19.59;100617.94;1810862;77;22222;-52
2021/05/11 10:54:05;;;;;;;4.72;1.27;;;;;;;31.57;19.66;100614.91;1822179;77;20518;-52
2021/05/11 10:56:44;;;;;;;3.00;0.88;;;;;;;31.47;20.49;100614.92;1806802;77;22190;-68
2021/05/11 11:05:03;;;;;;;5.47;1.50;;;;;;;31.58;19.88;100616.09;1812784;77;22155;-67
2021/05/11 11:07:40;;;;;;;2.70;0.95;;;;;;;31.53;19.78;100603.45;1835034;77;22140;-67
2021/05/11 11:10:15;;;;;;;3.55;1.25;;;;;;;31.62;20.27;100600.31;1794619;77;22225;-67
2021/05/11 11:12:48;;;;;;;2.05;1.17;;;;;;;31.59;19.76;100595.17;1848185;77;22195;-52
2021/05/11 11:15:22;;;;;;;2.22;1.07;;;;;;;31.62;19.92;100592.16;1806074;77;22197;-67
2021/05/11 11:17:55;;;;;;;2.70;0.95;;;;;;;31.85;20.76;100598.59;1813509;77;22156;-65
2021/05/11 11:20:34;;;;;;;3.20;1.15;;;;;;;31.87;20.13;100585.69;1840485;77;22687;-66
2021/05/11 11:23:34;;;;;;;8.28;1.57;;;;;;;31.81;19.52;100591.22;1789613;80;21197;-68
2021/05/11 11:26:09;;;;;;;2.98;1.00;;;;;;;31.54;20.53;100592.92;1811966;77;22209;-67
2021/05/11 11:28:42;;;;;;;7.78;1.77;;;;;;;31.72;20.55;100592.13;1819163;77;22194;-67
2021/05/11 11:31:33;;;;;;;3.72;0.98;;;;;;;31.86;20.65;100591.61;1768237;80;21130;-66
2021/05/11 11:34:25;;;;;;;3.65;1.27;;;;;;;32.28;20.15;100586.13;1822593;77;23013;-67
2021/05/11 11:37:01;;;;;;;4.47;1.25;;;;;;;32.58;20.14;100581.77;1824490;77;22167;-66
2021/05/11 11:39:51;;;;;;;8.70;1.85;;;;;;;32.60;19.57;100579.23;1821118;77;22148;-51
2021/05/11 11:42:27;;;;;;;3.40;1.10;;;;;;;32.53;19.63;100565.05;1843194;77;22143;-68
2021/05/11 11:45:27;;;;;;;4.80;1.27;;;;;;;32.25;20.03;100571.42;1788805;78;21893;-52
2021/05/11 11:48:03;;;;;;;2.25;0.88;;;;;;;32.20;19.96;100576.48;1832967;77;22156;-67
2021/05/11 11:50:38;;;;;;;2.45;0.95;;;;;;;32.34;20.08;100569.65;1829950;77;22213;-48
2021/05/11 11:53:22;;;;;;;3.35;1.45;;;;;;;32.54;20.57;100565.39;1813877;77;22166;-48
2021/05/11 11:56:36;;;;;;;5.17;1.10;;;;;;;32.78;20.37;100570.17;1766110;80;21181;-52
2021/05/11 11:59:05;;;;;;;5.17;1.52;;;;;;;32.89;19.61;100559.04;1798654;77;22158;-52
2021/05/11 12:01:38;;;;;;;5.87;1.17;;;;;;;32.82;19.60;100555.70;1788649;77;22201;-51
2021/05/11 12:04:24;;;;;;;4.75;1.25;;;;;;;32.84;19.88;100553.21;1741796;81;21127;-68
2021/05/11 12:07:05;;;;;;;2.77;1.15;;;;;;;32.86;19.77;100542.14;1798062;77;22189;-65
2021/05/11 12:09:39;;;;;;;2.55;1.12;;;;;;;32.87;20.29;100539.76;1818799;77;22606;-66
2021/05/11 12:12:14;;;;;;;4.42;1.37;;;;;;;32.86;20.19;100543.01;1818212;77;22605;-66
2021/05/11 12:14:47;;;;;;;2.30;1.10;;;;;;;32.83;19.76;100540.57;1833144;77;22172;-52
2021/05/11 12:17:33;;;;;;;5.55;1.27;;;;;;;32.75;20.10;100538.63;1828903;77;22139;-67
2021/05/11 12:20:24;;;;;;;4.92;1.20;;;;;;;32.87;19.79;100536.55;1791083;77;22204;-51
2021/05/11 12:23:18;;;;;;;3.70;1.27;;;;;;;32.81;20.15;100528.97;1760849;81;21167;-51
2021/05/11 12:26:00;;;;;;;3.83;1.17;;;;;;;33.02;20.83;100535.42;1818956;77;22187;-66
2021/05/11 12:31:17;;;;;;;4.42;1.47;;;;;;;32.48;20.70;100530.97;1811444;77;22157;-67
2021/05/11 12:33:56;;;;;;;3.17;1.00;;;;;;;33.03;20.39;100529.45;1837547;77;22126;-51
2021/05/11 12:36:29;;;;;;;4.62;1.17;;;;;;;33.21;19.87;100522.05;1786677;77;22194;-52
2021/05/11 12:42:21;;;;;;;6.30;1.25;;;;;;;33.11;20.29;100526.77;1819984;77;22191;-52
2021/05/11 12:45:15;;;;;;;3.47;1.10;;;;;;;32.99;20.08;100512.58;1831549;77;22140;-67
2021/05/11 12:48:02;;;;;;;1.87;0.98;;;;;;;32.86;19.81;100526.66;1747779;81;21178;-67
2021/05/11 12:50:39;;;;;;;3.75;1.00;;;;;;;33.00;20.36;100516.14;1807579;77;22608;-66
2021/05/11 12:53:43;;;;;;;4.53;0.85;;;;;;;33.09;20.17;100509.72;1834770;77;22156;-51
2021/05/11 12:59:32;;;;;;;4.92;1.45;;;;;;;33.10;20.22;100499.16;1813033;77;22135;-51
2021/05/11 13:02:14;;;;;;;3.25;1.00;;;;;;;33.02;20.48;100493.66;1820022;77;22189;-67
2021/05/11 13:16:23;;;;;;;3.92;1.12;;;;;;;33.05;20.45;100484.67;1812934;77;22178;-67
2021/05/11 13:30:27;;;;;;;6.80;1.12;;;;;;;32.67;20.49;100480.52;1827061;77;22178;-67
2021/05/11 13:35:39;;;;;;;2.72;0.90;;;;;;;31.41;22.29;100475.48;1806057;77;22200;-66
2021/05/11 13:38:24;;;;;;;4.15;1.30;;;;;;;31.94;21.81;100482.50;1731784;83;21558;-52
2021/05/11 13:41:04;;;;;;;7.58;1.62;;;;;;;32.36;21.49;100466.87;1815057;77;22205;-51
2021/05/11 13:43:37;;;;;;;8.18;1.10;;;;;;;32.19;22.06;100461.30;1823885;77;22839;-50
2021/05/11 13:46:22;;;;;;;57.60;4.65;;;;;;;31.68;22.00;100468.30;1761008;80;21585;-67
2021/05/11 13:48:56;;;;;;;10.35;1.77;;;;;;;31.57;22.41;100464.78;1834738;77;22188;-66
2021/05/11 13:51:35;;;;;;;4.87;1.12;;;;;;;31.53;22.93;100466.63;1819754;77;22195;-66
2021/05/11 13:54:10;;;;;;;5.17;1.25;;;;;;;31.43;22.49;100465.30;1818190;77;22139;-51
2021/05/11 14:02:37;;;;;;;7.40;1.20;;;;;;;30.98;23.03;100461.54;1819340;77;22135;-53
2021/05/11 14:05:01;;;;;;;6.50;1.72;;;;;;;31.12;23.31;100456.97;1829983;77;22198;-51
2021/05/11 14:07:47;;;;;;;8.35;1.32;;;;;;;31.10;22.69;100453.55;1762038;80;21162;-67
2021/05/11 14:10:20;;;;;;;12.07;2.52;;;;;;;31.06;22.95;100458.93;1819652;77;22653;-51
2021/05/11 14:12:54;;;;;;;7.53;1.87;;;;;;;31.97;21.97;100453.61;1801073;77;22605;-67
2021/05/11 14:15:41;;;;;;;5.28;1.30;;;;;;;32.09;22.20;100456.44;1777597;80;21189;-68
2021/05/11 14:18:14;;;;;;;6.80;1.25;;;;;;;32.22;21.54;100445.66;1834769;77;22164;-51
2021/05/11 14:20:47;;;;;;;7.10;1.37;;;;;;;32.24;21.54;100447.19;1813289;77;22161;-65
2021/05/11 14:23:20;;;;;;;9.83;1.37;;;;;;;32.16;21.34;100438.95;1827303;77;22147;-66
2021/05/11 14:25:53;;;;;;;5.62;1.00;;;;;;;32.18;21.89;100436.44;1818124;77;22175;-51
2021/05/11 14:28:27;;;;;;;2.77;1.10;;;;;;;32.17;21.58;100436.09;1836971;77;22178;-67
2021/05/11 14:31:00;;;;;;;7.70;1.40;;;;;;;31.83;21.77;100440.91;1813091;77;22220;-57
2021/05/11 14:33:46;;;;;;;7.95;1.20;;;;;;;31.41;21.85;100439.64;1775319;80;21264;-68
2021/05/11 14:36:19;;;;;;;3.70;1.25;;;;;;;30.92;22.46;100442.59;1812325;77;22197;-66
2021/05/11 14:38:52;;;;;;;11.00;1.37;;;;;;;30.55;22.78;100443.44;1813364;77;22640;-50
2021/05/11 14:41:25;;;;;;;18.37;2.77;;;;;;;30.16;23.44;100435.39;1810788;77;22689;-51
2021/05/11 14:43:59;;;;;;;4.15;1.17;;;;;;;29.76;24.17;100432.69;1827038;77;22120;-66
2021/05/11 14:46:32;;;;;;;3.37;1.55;;;;;;;29.37;24.98;100424.53;1807585;77;22179;-67
2021/05/11 14:49:19;;;;;;;4.25;1.40;;;;;;;29.37;24.98;100424.53;1767926;80;21272;-68
2021/05/11 14:51:52;;;;;;;5.20;1.30;;;;;;;29.17;25.26;100424.96;1793557;77;22177;-51
2021/05/11 14:54:25;;;;;;;9.20;1.55;;;;;;;29.04;25.25;100421.99;1834745;77;22184;-51
2021/05/11 14:57:11;;;;;;;9.15;1.20;;;;;;;28.98;25.60;100422.55;1702468;83;21150;-66
2021/05/11 14:59:50;;;;;;;7.80;1.22;;;;;;;29.06;25.79;100417.30;1828250;77;22564;-51
2021/05/11 15:02:23;;;;;;;5.08;1.27;;;;;;;29.23;25.78;100413.05;1819832;77;22617;-65
2021/05/11 15:04:56;;;;;;;3.00;1.07;;;;;;;29.38;25.73;100412.69;1830773;77;22583;-66
2021/05/11 15:07:29;;;;;;;3.87;1.20;;;;;;;29.37;25.53;100414.53;1813054;77;22621;-50
2021/05/11 15:10:15;;;;;;;5.35;1.00;;;;;;;29.17;26.02;100415.47;1784039;80;21151;-67
2021/05/11 15:12:50;;;;;;;5.20;1.60;;;;;;;28.86;25.96;100414.19;1834871;77;22152;-50
2021/05/11 15:15:23;;;;;;;5.50;1.35;;;;;;;28.73;25.84;100408.95;1823787;77;22144;-66
2021/05/11 15:18:01;;;;;;;12.78;1.77;;;;;;;28.74;26.25;100402.06;1851475;77;22167;-50
2021/05/11 15:20:34;;;;;;;4.97;1.55;;;;;;;28.89;26.23;100403.08;1808044;77;22194;-64
2021/05/11 15:23:20;;;;;;;4.97;1.57;;;;;;;28.92;26.02;100403.65;1762102;81;21292;-67
2021/05/11 15:25:53;;;;;;;6.20;1.60;;;;;;;29.07;25.99;100402.75;1804577;77;22178;-66
2021/05/11 15:28:26;;;;;;;5.60;1.72;;;;;;;29.16;26.49;100399.70;1835856;77;22162;-50
2021/05/11 15:30:59;;;;;;;7.33;1.87;;;;;;;29.27;26.22;100392.45;1816922;77;22174;-66
2021/05/11 15:33:32;;;;;;;5.62;1.40;;;;;;;29.42;25.95;100394.27;1809356;77;22190;-66
2021/05/11 15:36:07;;;;;;;19.55;2.85;;;;;;;29.44;25.74;100393.64;1803265;77;22190;-49
2021/05/11 15:38:40;;;;;;;7.05;1.98;;;;;;;29.57;25.96;100392.03;1801675;77;22609;-66
2021/05/11 15:41:25;;;;;;;4.00;1.50;;;;;;;28.88;26.47;100389.17;1749458;80;21595;-50
2021/05/11 15:43:59;;;;;;;7.20;1.75;;;;;;;28.59;27.20;100388.05;1817154;77;22162;-50
2021/05/11 15:46:32;;;;;;;2.98;1.22;;;;;;;28.48;27.28;100385.42;1793453;77;22201;-50
2021/05/11 15:49:17;;;;;;;5.60;1.62;;;;;;;28.39;27.61;100386.23;1755378;81;21122;-49
2021/05/11 15:51:56;;;;;;;8.93;1.45;;;;;;;28.31;27.37;100380.14;1807485;77;22618;-66
2021/05/11 15:54:29;;;;;;;6.55;1.42;;;;;;;28.10;27.34;100380.98;1801747;77;22577;-50
2021/05/11 15:57:03;;;;;;;9.20;2.05;;;;;;;27.96;27.40;100382.17;1820202;77;22637;-49
2021/05/11 15:59:37;;;;;;;5.00;1.55;;;;;;;27.74;27.43;100373.22;1828238;77;22139;-49
2021/05/11 16:02:10;;;;;;;4.42;1.50;;;;;;;27.55;27.83;100379.33;1819713;77;22543;-50
2021/05/11 16:04:56;;;;;;;8.63;2.05;;;;;;;27.31;28.33;100383.05;1762271;80;21130;-50
2021/05/11 16:07:35;;;;;;;8.23;1.70;;;;;;;27.24;28.92;100378.30;1830171;77;22578;-66
2021/05/11 16:10:10;;;;;;;19.25;11.45;;;;;;;27.15;29.17;100381.27;1844042;77;22153;-49
2021/05/11 16:12:58;;;;;;;18.25;6.40;;;;;;;27.51;29.07;100386.45;1781491;80;21126;-68
2021/05/11 16:15:31;;;;;;;24.25;12.00;;;;;;;27.04;30.21;100381.29;1823140;77;22190;-66
2021/05/11 16:18:05;;;;;;;23.87;12.90;;;;;;;26.89;30.52;100380.70;1838296;77;22134;-66
2021/05/11 16:20:51;;;;;;;11.93;5.50;;;;;;;26.73;30.82;100384.61;1786940;78;21151;-50
2021/05/11 16:23:24;;;;;;;10.00;3.20;;;;;;;26.59;31.11;100377.62;1834005;77;22139;-49
2021/05/11 16:25:57;;;;;;;10.78;2.58;;;;;;;26.45;31.40;100376.51;1815919;77;22167;-49
2021/05/11 16:28:36;;;;;;;8.45;2.62;;;;;;;26.30;31.68;100378.59;1825554;77;22171;-50
2021/05/11 16:31:09;;;;;;;5.90;1.80;;;;;;;26.20;32.02;100383.86;1806674;77;22181;-50